Time;durP1;ratioP1;P1;durP2;ratioP2;P2;SDS_P1;SDS_P2;PMS_P1;PMS_P2;Temp;Humidity;BMP_temperature;BMP_pressure;BME280_temperature;BME280_humidity;BME280_pressure;Samples;Min_cycle;Max_cycle;Signal;HPM_P1;HPM_P2
2023/01/16 00:00:48;;;;;;;1.75;1.40;;;;;;;5.07;100.00;97229.03;4134867;28;20634;-47
2023/01/16 00:02:50;;;;;;;1.42;1.20;;;;;;;5.05;100.00;97230.34;4148550;28;20278;-46
2023/01/16 00:04:51;;;;;;;1.55;1.52;;;;;;;5.08;100.00;97216.28;4136945;28;20303;-47
2023/01/16 00:06:53;;;;;;;3.55;1.27;;;;;;;5.06;100.00;97225.75;4122319;28;20222;-47
2023/01/16 00:08:55;;;;;;;2.40;1.45;;;;;;;5.09;100.00;97215.25;4135068;28;20197;-47
2023/01/16 00:10:57;;;;;;;1.50;1.02;;;;;;;5.05;100.00;97203.25;4137684;28;20209;-47
2023/01/16 00:12:59;;;;;;;1.30;1.20;;;;;;;5.01;100.00;97207.50;4137020;28;20595;-47
2023/01/16 00:15:01;;;;;;;1.70;1.60;;;;;;;4.97;100.00;97195.53;4152071;28;20303;-47
2023/01/16 00:17:02;;;;;;;4.05;0.90;;;;;;;4.95;100.00;97188.72;4136949;28;20288;-46
2023/01/16 00:19:05;;;;;;;5.63;1.25;;;;;;;4.91;100.00;97169.41;4139897;28;20717;-48
2023/01/16 00:21:06;;;;;;;1.88;1.10;;;;;;;4.88;100.00;97175.31;4140551;28;20304;-47
2023/01/16 00:23:10;;;;;;;1.85;0.98;;;;;;;4.91;100.00;97157.75;4138671;28;20264;-47
2023/01/16 00:25:12;;;;;;;1.77;0.90;;;;;;;4.85;100.00;97174.97;4151921;28;20251;-47
2023/01/16 00:27:13;;;;;;;0.75;0.60;;;;;;;4.85;100.00;97172.28;4136848;28;20225;-47
2023/01/16 00:29:15;;;;;;;3.05;1.20;;;;;;;4.80;100.00;97167.59;4153022;28;20602;-46
2023/01/16 00:31:17;;;;;;;2.47;0.90;;;;;;;4.83;100.00;97160.88;4138552;28;20233;-47
2023/01/16 00:33:19;;;;;;;1.63;1.15;;;;;;;4.77;100.00;97146.44;4139327;28;20617;-47
2023/01/16 00:35:21;;;;;;;1.33;1.17;;;;;;;4.77;100.00;97151.84;4138248;28;20331;-48
2023/01/16 00:37:23;;;;;;;1.80;0.93;;;;;;;4.78;100.00;97153.50;4141402;28;20229;-47
2023/01/16 00:39:24;;;;;;;1.60;1.00;;;;;;;4.76;100.00;97141.25;4145159;28;20232;-47
2023/01/16 00:41:26;;;;;;;1.55;1.20;;;;;;;4.76;100.00;97149.38;4140939;28;20284;-47
2023/01/16 00:43:28;;;;;;;0.90;0.90;;;;;;;4.76;100.00;97144.81;4135755;28;20233;-47
2023/01/16 00:45:30;;;;;;;2.80;1.08;;;;;;;4.65;100.00;97139.44;4147612;28;20591;-47
2023/01/16 00:47:31;;;;;;;1.00;1.00;;;;;;;4.56;100.00;97141.75;4119510;28;20282;-47
2023/01/16 00:49:33;;;;;;;5.15;1.10;;;;;;;4.40;100.00;97131.72;4138005;28;20320;-49
2023/01/16 00:51:35;;;;;;;0.85;0.85;;;;;;;4.33;100.00;97132.97;4136377;28;20684;-47
2023/01/16 00:53:36;;;;;;;1.23;1.08;;;;;;;4.25;100.00;97131.47;4135295;28;20605;-47
2023/01/16 00:55:41;;;;;;;0.90;0.90;;;;;;;4.25;100.00;97128.75;4137702;28;20296;-48
2023/01/16 00:57:43;;;;;;;1.33;1.00;;;;;;;4.24;100.00;97119.00;4135901;28;20231;-47
2023/01/16 00:59:44;;;;;;;3.85;1.52;;;;;;;4.18;100.00;97119.97;4138375;28;20205;-47
2023/01/16 01:01:46;;;;;;;1.00;1.00;;;;;;;4.16;100.00;97116.72;4136322;28;20258;-47
2023/01/16 01:03:48;;;;;;;1.10;0.77;;;;;;;4.19;100.00;97108.09;4134109;28;20209;-47
2023/01/16 01:05:50;;;;;;;4.95;2.20;;;;;;;4.16;100.00;97105.88;4138800;28;20233;-49
2023/01/16 01:07:51;;;;;;;1.77;0.98;;;;;;;4.18;100.00;97095.63;4141601;28;20312;-46
2023/01/16 01:09:53;;;;;;;3.10;1.10;;;;;;;4.17;100.00;97085.88;4128480;28;20245;-47
2023/01/16 01:11:58;;;;;;;1.30;1.30;;;;;;;4.19;100.00;97080.22;4137764;28;20320;-47
2023/01/16 01:14:00;;;;;;;2.00;1.27;;;;;;;4.21;100.00;97076.16;4138847;28;20251;-46
2023/01/16 01:16:04;;;;;;;1.00;1.00;;;;;;;4.21;100.00;97068.06;4140023;28;20292;-47
2023/01/16 01:18:06;;;;;;;2.25;1.45;;;;;;;4.21;100.00;97059.94;4141463;28;20214;-47
2023/01/16 01:20:08;;;;;;;2.30;1.05;;;;;;;4.23;100.00;97073.22;4149827;28;20212;-47
2023/01/16 01:22:10;;;;;;;6.55;1.33;;;;;;;4.27;100.00;97052.72;4138713;28;20276;-47
2023/01/16 01:24:12;;;;;;;1.13;1.05;;;;;;;4.28;100.00;97038.94;4137895;28;20633;-47
2023/01/16 01:26:15;;;;;;;1.00;1.00;;;;;;;4.25;100.00;97039.44;4137721;28;20303;-47
2023/01/16 01:28:18;;;;;;;1.77;0.88;;;;;;;4.29;100.00;97032.47;4153740;28;20300;-47
2023/01/16 01:30:20;;;;;;;2.60;1.08;;;;;;;4.30;100.00;97044.09;4140183;28;20232;-47
2023/01/16 01:32:23;;;;;;;1.23;1.10;;;;;;;4.30;100.00;97031.41;4138891;28;20298;-47
2023/01/16 01:34:24;;;;;;;1.33;1.23;;;;;;;4.27;100.00;97026.47;4138318;28;20210;-47
2023/01/16 01:36:26;;;;;;;1.13;1.13;;;;;;;4.31;100.00;97022.22;4127504;28;20321;-46
2023/01/16 01:38:28;;;;;;;0.63;0.63;;;;;;;4.36;100.00;97019.59;4136890;28;20293;-48
2023/01/16 01:40:30;;;;;;;2.60;1.25;;;;;;;4.40;100.00;97023.44;4137223;28;20220;-47
2023/01/16 01:42:42;;;;;;;1.50;1.40;;;;;;;4.34;100.00;97010.88;4138627;28;20316;-47
2023/01/16 01:44:47;;;;;;;1.60;1.23;;;;;;;4.33;100.00;97006.53;4138030;28;20264;-47
2023/01/16 01:46:48;;;;;;;5.05;1.35;;;;;;;4.34;100.00;97019.00;4141253;28;20241;-47
2023/01/16 01:48:54;;;;;;;1.30;1.20;;;;;;;4.34;100.00;97010.06;4139951;28;20241;-47
2023/01/16 01:51:02;;;;;;;2.33;1.08;;;;;;;4.37;100.00;96998.72;4132527;28;20218;-47
2023/01/16 01:53:09;;;;;;;1.75;1.35;;;;;;;4.35;100.00;97001.69;4141853;28;20256;-47
2023/01/16 01:55:12;;;;;;;0.90;0.80;;;;;;;4.32;100.00;96991.38;4136440;28;20265;-47
2023/01/16 01:57:18;;;;;;;2.10;0.98;;;;;;;4.35;100.00;96996.25;4140449;28;20276;-47
2023/01/16 01:59:41;;;;;;;3.95;0.93;;;;;;;4.35;100.00;96980.03;4149325;28;20212;-46
2023/01/16 02:01:43;;;;;;;1.30;1.10;;;;;;;4.41;100.00;96979.03;4133754;28;20328;-47
2023/01/16 02:03:55;;;;;;;1.00;0.80;;;;;;;4.42;100.00;96969.88;4137491;28;20210;-47
2023/01/16 02:06:00;;;;;;;1.52;1.00;;;;;;;4.40;100.00;96969.28;4136114;28;20205;-47
2023/01/16 02:08:02;;;;;;;1.15;1.13;;;;;;;4.42;100.00;96964.44;4139262;28;20225;-47
2023/01/16 02:10:30;;;;;;;0.85;0.85;;;;;;;4.48;100.00;96958.00;4139922;28;20221;-47
2023/01/16 02:12:32;;;;;;;1.15;0.80;;;;;;;4.45;100.00;96949.56;4102744;28;20658;-47
2023/01/16 02:14:37;;;;;;;2.97;1.08;;;;;;;4.44;100.00;96948.78;4134388;28;20665;-47
2023/01/16 02:19:15;;;;;;;1.30;1.30;;;;;;;4.40;100.00;96928.66;4136622;28;20220;-47
2023/01/16 02:21:35;;;;;;;2.38;1.25;;;;;;;4.47;100.00;96929.31;4138360;28;20237;-47
2023/01/16 02:24:07;;;;;;;1.08;0.80;;;;;;;4.50;100.00;96915.28;4137969;28;20241;-47
2023/01/16 02:26:50;;;;;;;1.08;1.02;;;;;;;4.50;100.00;96917.97;4152445;28;20654;-47
2023/01/16 02:29:39;;;;;;;1.17;0.95;;;;;;;4.48;100.00;96909.28;4137462;28;20221;-47
2023/01/16 02:31:47;;;;;;;1.33;0.98;;;;;;;4.53;100.00;96901.22;4066709;29;20228;-47
2023/01/16 02:34:00;;;;;;;1.05;1.05;;;;;;;4.53;100.00;96895.81;4131848;28;20717;-47
2023/01/16 02:36:18;;;;;;;8.75;1.60;;;;;;;4.57;100.00;96877.16;4150227;28;20251;-47
2023/01/16 02:38:59;;;;;;;1.60;1.23;;;;;;;4.54;100.00;96875.78;4137322;28;20264;-49
2023/01/16 02:41:28;;;;;;;1.10;1.10;;;;;;;4.46;100.00;96862.69;4137381;28;20272;-48
2023/01/16 02:43:36;;;;;;;6.57;1.15;;;;;;;4.46;100.00;96857.25;4137240;28;20209;-47
2023/01/16 02:46:04;;;;;;;1.13;0.95;;;;;;;4.45;100.00;96861.06;4140076;28;20336;-48
2023/01/16 02:48:15;;;;;;;1.30;1.20;;;;;;;4.45;100.00;96850.22;4108777;28;20241;-47
2023/01/16 02:50:31;;;;;;;0.80;0.80;;;;;;;4.51;100.00;96843.78;4140519;28;20209;-47
2023/01/16 02:52:40;;;;;;;1.27;0.73;;;;;;;4.55;100.00;96839.53;4135132;28;20352;-48
2023/01/16 02:54:51;;;;;;;3.63;0.95;;;;;;;4.54;100.00;96821.63;4136391;28;20673;-47
2023/01/16 02:57:00;;;;;;;1.02;1.02;;;;;;;4.58;100.00;96821.94;4118040;28;20213;-47
2023/01/16 02:59:02;;;;;;;2.42;1.63;;;;;;;4.61;100.00;96813.31;4133080;28;20236;-47
2023/01/16 03:01:03;;;;;;;2.08;1.13;;;;;;;4.60;100.00;96803.56;4138431;28;20255;-48
2023/01/16 03:03:05;;;;;;;1.00;0.90;;;;;;;4.64;100.00;96800.06;4152093;28;21099;-48
2023/01/16 03:05:07;;;;;;;0.50;0.50;;;;;;;4.65;100.00;96803.59;4136173;28;20996;-47
2023/01/16 03:07:29;;;;;;;5.03;0.77;;;;;;;4.67;100.00;96791.44;4137826;28;20766;-48
2023/01/16 03:09:55;;;;;;;1.08;1.08;;;;;;;4.66;100.00;96795.22;4140087;28;20213;-47
2023/01/16 03:12:18;;;;;;;1.30;1.10;;;;;;;4.67;100.00;96783.31;4139520;28;20244;-48
2023/01/16 03:14:29;;;;;;;1.02;0.93;;;;;;;4.64;100.00;96778.41;4136910;28;20233;-47
2023/01/16 03:17:29;;;;;;;1.27;0.80;;;;;;;4.68;100.00;96774.09;4136904;28;20264;-47
2023/01/16 03:19:48;;;;;;;2.63;1.20;;;;;;;4.67;100.00;96761.63;4091810;29;20215;-47
2023/01/16 03:21:55;;;;;;;0.90;0.85;;;;;;;4.64;100.00;96750.50;4133492;28;20235;-46
2023/01/16 03:24:08;;;;;;;1.02;1.02;;;;;;;4.65;100.00;96742.13;4153892;28;20308;-47
2023/01/16 03:26:29;;;;;;;1.23;0.88;;;;;;;4.70;100.00;96733.22;4129145;28;20209;-47
2023/01/16 03:28:40;;;;;;;2.65;1.13;;;;;;;4.68;100.00;96727.25;4135608;28;21001;-47
2023/01/16 03:30:47;;;;;;;0.73;0.73;;;;;;;4.66;100.00;96711.25;4151446;28;20326;-47
2023/01/16 03:33:05;;;;;;;2.65;1.30;;;;;;;4.67;100.00;96715.59;4136255;28;20235;-47
2023/01/16 03:35:09;;;;;;;0.95;0.95;;;;;;;4.71;100.00;96715.88;4138466;28;20245;-47
2023/01/16 03:37:16;;;;;;;1.08;0.90;;;;;;;4.71;100.00;96707.75;4137318;28;20205;-47
2023/01/16 03:39:22;;;;;;;1.35;1.23;;;;;;;4.74;100.00;96704.56;4142795;28;20200;-47
2023/01/16 03:41:24;;;;;;;1.40;1.10;;;;;;;4.77;100.00;96707.56;4139272;28;20264;-47
2023/01/16 03:43:30;;;;;;;2.22;1.10;;;;;;;4.77;100.00;96702.16;4139746;28;20695;-47
2023/01/16 03:45:42;;;;;;;2.00;1.13;;;;;;;4.75;100.00;96690.75;4150571;28;20335;-47
2023/01/16 03:47:49;;;;;;;0.90;0.90;;;;;;;4.72;100.00;96691.25;4137737;28;20209;-47
2023/01/16 03:49:56;;;;;;;1.20;1.05;;;;;;;4.73;100.00;96679.34;4139631;28;20666;-47
2023/01/16 03:52:00;;;;;;;1.10;1.00;;;;;;;4.71;100.00;96686.94;4135050;28;20225;-47
2023/01/16 03:54:05;;;;;;;1.13;1.02;;;;;;;4.73;100.00;96681.25;4140376;28;20315;-47
2023/01/16 03:56:20;;;;;;;6.10;1.10;;;;;;;4.76;100.00;96673.44;4151363;28;20954;-47
2023/01/16 03:58:36;;;;;;;0.60;0.60;;;;;;;4.73;100.00;96667.72;4138668;28;20280;-47
2023/01/16 04:00:47;;;;;;;0.90;0.90;;;;;;;4.79;100.00;96664.78;4135145;28;20221;-48
2023/01/16 04:02:56;;;;;;;0.90;0.90;;;;;;;4.77;100.00;96653.41;4152445;28;20998;-47
2023/01/16 04:05:07;;;;;;;1.05;0.95;;;;;;;4.74;100.00;96637.63;4136081;28;20272;-48
2023/01/16 04:07:13;;;;;;;1.80;1.50;;;;;;;4.71;100.00;96638.19;4121676;28;20308;-47
2023/01/16 04:09:38;;;;;;;1.15;1.05;;;;;;;4.79;100.00;96624.16;4136003;28;20306;-48
2023/01/16 04:11:42;;;;;;;1.15;0.98;;;;;;;4.77;100.00;96620.06;4151809;28;20224;-48
2023/01/16 04:13:50;;;;;;;2.60;0.93;;;;;;;4.79;100.00;96618.72;4136573;28;20210;-48
2023/01/16 04:15:54;;;;;;;0.63;0.63;;;;;;;4.74;100.00;96599.72;4134875;28;20246;-47
2023/01/16 04:17:56;;;;;;;0.85;0.85;;;;;;;4.76;100.00;96603.00;4140547;28;20458;-48
2023/01/16 04:19:57;;;;;;;1.48;1.15;;;;;;;4.74;100.00;96597.00;4151946;28;20247;-47
2023/01/16 04:22:04;;;;;;;1.10;0.70;;;;;;;4.74;100.00;96586.19;4136134;28;20257;-48
2023/01/16 04:24:06;;;;;;;6.97;1.92;;;;;;;4.75;100.00;96577.00;4136306;28;20213;-47
2023/01/16 04:26:08;;;;;;;0.85;0.85;;;;;;;4.74;100.00;96572.63;4119337;28;20245;-47
2023/01/16 04:28:10;;;;;;;1.00;1.00;;;;;;;4.78;100.00;96568.34;4135868;28;20785;-47
2023/01/16 04:30:12;;;;;;;1.58;1.08;;;;;;;4.75;100.00;96563.47;4137725;28;20300;-47
2023/01/16 04:32:14;;;;;;;1.40;1.30;;;;;;;4.75;100.00;96552.63;4137628;28;20264;-47
2023/01/16 04:34:16;;;;;;;0.90;0.90;;;;;;;4.70;100.00;96563.41;4139706;28;20237;-48
2023/01/16 04:36:17;;;;;;;1.13;1.02;;;;;;;4.73;100.00;96538.50;4136707;28;20301;-47
2023/01/16 04:38:19;;;;;;;1.10;1.00;;;;;;;4.71;100.00;96543.38;4140544;28;20240;-47
2023/01/16 04:40:21;;;;;;;1.95;0.70;;;;;;;4.72;100.00;96531.47;4139291;28;20311;-48
2023/01/16 04:42:23;;;;;;;0.88;0.73;;;;;;;4.71;100.00;96534.41;4137424;28;20687;-48
2023/01/16 04:44:24;;;;;;;0.68;0.68;;;;;;;4.70;100.00;96525.50;4141010;28;20209;-48
2023/01/16 04:46:26;;;;;;;1.23;1.10;;;;;;;4.68;100.00;96514.09;4139555;28;20731;-47
2023/01/16 04:48:28;;;;;;;0.80;0.80;;;;;;;4.66;100.00;96513.53;4122704;28;20232;-47
2023/01/16 04:50:30;;;;;;;2.05;0.90;;;;;;;4.64;100.00;96496.75;4139207;28;20236;-47
2023/01/16 04:52:32;;;;;;;0.88;0.88;;;;;;;4.65;100.00;96487.53;4142092;28;20740;-47
2023/01/16 04:54:34;;;;;;;5.60;1.08;;;;;;;4.68;100.00;96475.38;4142571;28;20213;-47
2023/01/16 04:56:36;;;;;;;1.20;1.20;;;;;;;4.65;100.00;96475.88;4137804;28;20805;-47
2023/01/16 04:58:38;;;;;;;0.98;0.60;;;;;;;4.52;100.00;96466.34;4138718;28;21941;-48
2023/01/16 05:00:39;;;;;;;1.55;0.80;;;;;;;4.51;100.00;96453.88;4140079;28;20647;-48
2023/01/16 05:02:41;;;;;;;1.92;1.25;;;;;;;4.43;100.00;96450.84;4153151;28;20239;-47
2023/01/16 05:04:43;;;;;;;1.60;1.30;;;;;;;4.42;100.00;96428.41;4138041;28;20209;-47
2023/01/16 05:06:45;;;;;;;2.00;1.20;;;;;;;4.32;100.00;96427.50;4141558;28;20779;-47
2023/01/16 05:08:47;;;;;;;6.68;0.90;;;;;;;4.32;100.00;96417.50;4139882;28;20264;-47
2023/01/16 05:10:49;;;;;;;1.73;1.08;;;;;;;4.30;100.00;96400.72;4139430;28;20217;-48
2023/01/16 05:12:50;;;;;;;1.80;1.50;;;;;;;4.23;100.00;96410.97;4124526;28;20309;-47
2023/01/16 05:14:52;;;;;;;2.28;1.63;;;;;;;4.17;100.00;96398.47;4140278;28;20209;-47
2023/01/16 05:16:54;;;;;;;1.92;1.27;;;;;;;4.21;100.00;96396.84;4140611;28;20330;-47
2023/01/16 05:18:56;;;;;;;1.48;1.38;;;;;;;4.14;100.00;96393.56;4141850;28;20252;-47
2023/01/16 05:20:59;;;;;;;1.15;0.98;;;;;;;4.08;100.00;96383.78;4140264;28;20241;-47
2023/01/16 05:23:00;;;;;;;0.90;0.90;;;;;;;4.04;100.00;96381.88;4141501;28;20209;-48
2023/01/16 05:25:03;;;;;;;0.90;0.90;;;;;;;4.09;100.00;96366.50;4139384;28;20546;-47
2023/01/16 05:27:04;;;;;;;1.23;1.10;;;;;;;4.01;100.00;96364.28;4139877;28;20220;-47
2023/01/16 05:29:06;;;;;;;2.70;1.38;;;;;;;4.00;100.00;96354.53;4135615;28;20217;-48
2023/01/16 05:31:08;;;;;;;2.40;0.93;;;;;;;3.89;100.00;96347.44;4139905;28;20232;-48
2023/01/16 05:33:10;;;;;;;1.40;1.30;;;;;;;3.93;100.00;96337.72;4148634;28;20216;-47
2023/01/16 05:35:15;;;;;;;1.27;1.00;;;;;;;3.99;100.00;96331.25;4122948;28;20210;-47
2023/01/16 05:37:17;;;;;;;1.48;1.27;;;;;;;3.89;100.00;96325.81;4139310;28;20621;-48
2023/01/16 05:39:19;;;;;;;2.20;1.77;;;;;;;3.86;100.00;96312.81;4140107;28;20252;-47
2023/01/16 05:41:20;;;;;;;0.90;0.90;;;;;;;3.81;100.00;96307.34;4138129;28;20256;-49
2023/01/16 05:43:22;;;;;;;1.38;1.15;;;;;;;3.89;100.00;96296.06;4142880;28;20657;-48
2023/01/16 05:45:24;;;;;;;1.00;1.00;;;;;;;3.87;100.00;96290.09;4155223;28;20639;-47
2023/01/16 05:47:26;;;;;;;1.55;0.82;;;;;;;3.74;100.00;96295.97;4138348;28;20361;-47
2023/01/16 05:49:27;;;;;;;1.10;1.00;;;;;;;3.78;100.00;96270.03;4141525;28;20292;-47
2023/01/16 05:51:29;;;;;;;4.13;1.40;;;;;;;3.82;100.00;96264.91;4149710;28;20231;-47
2023/01/16 05:53:31;;;;;;;1.23;1.13;;;;;;;3.74;100.00;96266.22;4141183;28;20758;-47
2023/01/16 05:55:41;;;;;;;0.70;0.70;;;;;;;3.71;100.00;96264.03;4156017;28;20888;-47
2023/01/16 05:57:43;;;;;;;0.90;0.90;;;;;;;3.70;100.00;96257.00;4153301;28;20608;-47
2023/01/16 05:59:48;;;;;;;0.82;0.82;;;;;;;3.71;100.00;96250.53;4137358;28;20216;-47
2023/01/16 06:01:50;;;;;;;0.90;0.90;;;;;;;3.67;100.00;96241.31;4125692;28;20260;-46
2023/01/16 06:03:52;;;;;;;0.98;0.98;;;;;;;3.73;100.00;96234.84;4139563;28;20587;-47
2023/01/16 06:05:53;;;;;;;1.23;1.13;;;;;;;3.72;100.00;96233.22;4143516;28;20256;-47
2023/01/16 06:07:58;;;;;;;1.55;1.13;;;;;;;3.68;100.00;96236.72;4144674;28;20328;-47
2023/01/16 06:10:00;;;;;;;1.65;1.38;;;;;;;3.76;100.00;96234.34;4141335;28;20271;-47
2023/01/16 06:12:01;;;;;;;1.10;0.80;;;;;;;3.71;100.00;96223.50;4141337;28;20591;-47
2023/01/16 06:14:04;;;;;;;1.10;1.10;;;;;;;3.75;100.00;96205.66;4135444;28;20857;-47
2023/01/16 06:16:06;;;;;;;1.05;0.70;;;;;;;3.73;100.00;96207.81;4134680;28;20208;-47
2023/01/16 06:18:08;;;;;;;1.13;1.10;;;;;;;3.70;100.00;96202.94;4136340;28;20209;-47
2023/01/16 06:20:11;;;;;;;1.95;1.25;;;;;;;3.74;100.00;96195.13;4135415;28;20296;-47
2023/01/16 06:22:15;;;;;;;1.55;0.95;;;;;;;3.66;100.00;96191.00;4139293;28;20229;-47
2023/01/16 06:24:17;;;;;;;1.33;1.15;;;;;;;3.74;100.00;96182.38;4138988;28;20221;-48
2023/01/16 06:26:19;;;;;;;2.35;1.60;;;;;;;3.70;100.00;96170.50;4137860;28;20291;-47
2023/01/16 06:28:21;;;;;;;1.38;1.25;;;;;;;3.74;100.00;96176.97;4140463;28;20274;-47
2023/01/16 06:30:23;;;;;;;1.30;1.20;;;;;;;3.74;100.00;96160.75;4124544;28;20256;-47
2023/01/16 06:32:25;;;;;;;1.13;1.02;;;;;;;3.70;100.00;96159.69;4138109;28;20228;-48
2023/01/16 06:34:29;;;;;;;4.55;1.58;;;;;;;3.65;100.00;96162.34;4137183;28;21976;-47
2023/01/16 06:36:30;;;;;;;1.83;1.23;;;;;;;3.70;100.00;96165.09;4137351;28;20293;-47
2023/01/16 06:38:32;;;;;;;1.20;1.10;;;;;;;3.63;100.00;96159.13;4134839;28;20631;-47
2023/01/16 06:40:34;;;;;;;0.80;0.80;;;;;;;3.72;100.00;96157.50;4137759;28;20251;-47
2023/01/16 06:42:36;;;;;;;0.98;0.98;;;;;;;3.69;100.00;96146.41;4138760;28;20268;-46
2023/01/16 06:44:38;;;;;;;1.35;1.25;;;;;;;3.70;100.00;96150.75;4137416;28;20302;-47
2023/01/16 06:46:40;;;;;;;2.35;0.93;;;;;;;3.68;100.00;96142.88;4141306;28;20300;-47
2023/01/16 06:48:44;;;;;;;1.23;1.13;;;;;;;3.64;100.00;96139.09;4137391;28;20222;-47
2023/01/16 06:50:53;;;;;;;4.60;1.42;;;;;;;3.61;100.00;96126.09;4137774;28;20204;-48
2023/01/16 06:52:55;;;;;;;1.38;1.05;;;;;;;3.64;100.00;96119.34;4136628;28;20224;-47
2023/01/16 06:54:57;;;;;;;1.33;1.15;;;;;;;3.60;100.00;96116.38;4138614;28;20292;-48
2023/01/16 06:56:59;;;;;;;1.20;1.10;;;;;;;3.60;100.00;96116.38;4134499;28;20300;-48
2023/01/16 06:59:01;;;;;;;0.93;0.93;;;;;;;3.65;100.00;96097.47;4125008;28;20198;-48
2023/01/16 07:01:04;;;;;;;1.05;1.00;;;;;;;3.62;100.00;96087.22;4134877;28;20221;-48
2023/01/16 07:03:07;;;;;;;1.00;0.90;;;;;;;3.66;100.00;96082.06;4135590;28;20210;-47
2023/01/16 07:05:09;;;;;;;1.20;1.10;;;;;;;3.69;100.00;96076.94;4122817;28;20305;-48
2023/01/16 07:07:11;;;;;;;1.40;1.00;;;;;;;3.70;100.00;96078.56;4149736;28;20551;-48
2023/01/16 07:09:13;;;;;;;0.85;0.85;;;;;;;3.68;100.00;96078.00;4137322;28;20265;-48
2023/01/16 07:11:14;;;;;;;1.27;1.27;;;;;;;3.75;100.00;96067.75;4136998;28;20246;-48
2023/01/16 07:13:16;;;;;;;1.10;1.10;;;;;;;3.75;100.00;96058.84;4136904;28;20301;-48
2023/01/16 07:22:34;;;;;;;0.88;0.88;;;;;;;3.82;100.00;96038.59;4136183;28;20290;-46
2023/01/16 07:24:38;;;;;;;1.27;1.00;;;;;;;3.85;100.00;96038.03;4149075;28;20246;-46
2023/01/16 07:26:42;;;;;;;1.67;1.58;;;;;;;3.90;100.00;96042.63;4146868;28;20213;-45
2023/01/16 07:28:44;;;;;;;1.70;0.90;;;;;;;3.89;100.00;96049.94;4132734;28;20261;-46
2023/01/16 07:30:46;;;;;;;1.88;1.05;;;;;;;3.95;100.00;96043.44;4139739;28;20201;-46
2023/01/16 07:32:48;;;;;;;1.10;1.10;;;;;;;3.99;99.69;96036.41;4136055;28;20334;-46
2023/01/16 07:34:50;;;;;;;0.90;0.90;;;;;;;4.03;99.03;96029.41;4135181;28;20210;-46
2023/01/16 07:36:52;;;;;;;1.88;0.98;;;;;;;4.01;99.31;96020.72;4119973;28;20249;-46
2023/01/16 07:38:54;;;;;;;1.60;1.45;;;;;;;4.05;98.34;96016.41;4133404;28;20582;-46
2023/01/16 07:40:58;;;;;;;0.90;0.90;;;;;;;4.04;98.31;96019.38;4140717;28;20216;-47
2023/01/16 07:43:00;;;;;;;3.40;1.13;;;;;;;4.10;98.08;96016.41;4139693;28;20285;-46
2023/01/16 07:45:03;;;;;;;0.98;0.98;;;;;;;4.09;98.12;96012.09;4136949;28;20643;-46
2023/01/16 07:47:04;;;;;;;1.13;1.13;;;;;;;4.10;98.80;96008.31;4141280;28;20248;-48
2023/01/16 07:49:06;;;;;;;3.38;1.30;;;;;;;4.16;97.70;95990.16;4140749;28;20734;-46
2023/01/16 07:51:08;;;;;;;0.80;0.80;;;;;;;4.12;97.74;95979.06;4137876;28;20236;-47
2023/01/16 07:53:09;;;;;;;0.93;0.93;;;;;;;4.17;97.59;95970.97;4137940;28;20301;-47
2023/01/16 07:55:12;;;;;;;4.22;1.02;;;;;;;4.09;98.72;95936.34;4153359;28;20553;-49
2023/01/16 07:57:14;;;;;;;1.38;1.13;;;;;;;4.11;99.29;95923.34;4142842;28;20342;-46
2023/01/16 07:59:16;;;;;;;1.10;1.10;;;;;;;4.09;100.00;95935.53;4140546;28;20217;-47
2023/01/16 08:01:18;;;;;;;1.20;1.10;;;;;;;4.06;100.00;95947.69;4126495;28;20272;-47
2023/01/16 08:03:23;;;;;;;7.05;1.58;;;;;;;4.00;100.00;95970.41;4151202;28;20213;-47
2023/01/16 08:05:27;;;;;;;1.52;1.42;;;;;;;3.96;100.00;95955.84;4138428;28;20276;-47
2023/01/16 08:07:32;;;;;;;1.05;1.05;;;;;;;3.92;100.00;95935.81;4134620;28;22376;-48
2023/01/16 08:09:33;;;;;;;2.47;1.50;;;;;;;3.91;100.00;95938.78;4131994;28;20267;-46
2023/01/16 08:11:38;;;;;;;1.55;1.45;;;;;;;3.90;100.00;95935.28;4128263;28;20275;-45
2023/01/16 08:13:40;;;;;;;1.20;1.00;;;;;;;3.90;100.00;95924.47;4140074;28;20216;-46
2023/01/16 08:15:42;;;;;;;2.05;1.58;;;;;;;3.92;100.00;95941.22;4118271;28;20210;-46
2023/01/16 08:17:44;;;;;;;1.63;1.30;;;;;;;3.94;100.00;95933.63;4134371;28;20214;-46
2023/01/16 08:19:47;;;;;;;1.70;1.60;;;;;;;3.97;100.00;95933.09;4140963;28;20662;-46
2023/01/16 08:21:49;;;;;;;2.85;1.00;;;;;;;3.94;100.00;95928.22;4153828;28;20228;-47
2023/01/16 08:23:51;;;;;;;1.00;1.00;;;;;;;3.88;100.00;95928.50;4136213;28;20209;-47
2023/01/16 08:25:53;;;;;;;1.30;1.20;;;;;;;3.86;100.00;95930.69;4135191;28;20316;-48
2023/01/16 08:27:56;;;;;;;1.27;0.80;;;;;;;3.80;100.00;95926.34;4135855;28;20566;-46
2023/01/16 08:30:01;;;;;;;0.90;0.90;;;;;;;3.71;100.00;95907.16;4136945;28;20608;-46
2023/01/16 08:32:03;;;;;;;1.75;1.15;;;;;;;3.68;100.00;95915.78;4122970;28;20245;-46
2023/01/16 08:34:05;;;;;;;1.35;1.30;;;;;;;3.65;100.00;95897.44;4135999;28;20271;-47
2023/01/16 08:36:12;;;;;;;0.90;0.90;;;;;;;3.63;100.00;95905.00;4137846;28;20328;-46
2023/01/16 08:38:14;;;;;;;2.03;1.13;;;;;;;3.66;100.00;95899.03;4151305;28;20209;-45
2023/01/16 08:40:17;;;;;;;5.72;1.40;;;;;;;3.65;100.00;95892.03;4137518;28;20231;-46
2023/01/16 08:51:54;;;;;;;0.93;0.93;;;;;;;3.72;100.00;95870.94;4137492;28;20233;-46
2023/01/16 08:53:56;;;;;;;1.33;0.93;;;;;;;3.67;100.00;95857.41;4138741;28;20208;-47
2023/01/16 08:55:58;;;;;;;5.43;1.10;;;;;;;3.66;100.00;95855.78;4141178;28;20245;-45
2023/01/16 08:58:01;;;;;;;1.05;1.05;;;;;;;3.73;100.00;95858.22;4139062;28;20212;-46
2023/01/16 09:00:06;;;;;;;1.33;1.20;;;;;;;3.70;100.00;95851.47;4138949;28;20291;-45
2023/01/16 09:02:10;;;;;;;1.02;1.02;;;;;;;3.71;100.00;95849.56;4137182;28;20272;-47
2023/01/16 09:04:12;;;;;;;0.90;0.90;;;;;;;3.71;100.00;95853.09;4134996;28;20289;-46
2023/01/16 09:06:14;;;;;;;1.13;1.13;;;;;;;3.66;100.00;95850.38;4138403;28;20813;-45
2023/01/16 09:08:16;;;;;;;1.13;1.02;;;;;;;3.71;100.00;95857.66;4119479;28;20222;-46
2023/01/16 09:10:18;;;;;;;0.70;0.70;;;;;;;3.69;100.00;95847.16;4146247;28;20939;-46
2023/01/16 09:14:45;;;;;;;0.80;0.80;;;;;;;3.76;100.00;95850.38;4135650;28;20213;-47
2023/01/16 09:16:50;;;;;;;1.05;1.05;;;;;;;3.76;100.00;95844.97;4137394;28;20205;-46
2023/01/16 09:18:55;;;;;;;1.33;1.30;;;;;;;3.71;100.00;95847.69;4148516;28;20209;-46
2023/01/16 09:20:57;;;;;;;0.93;0.93;;;;;;;3.67;100.00;95841.19;4134388;28;20210;-46
2023/01/16 09:23:01;;;;;;;0.90;0.90;;;;;;;3.69;100.00;95838.22;4134142;28;20321;-46
2023/01/16 09:25:03;;;;;;;1.00;1.00;;;;;;;3.65;100.00;95835.25;4133428;28;20239;-46
2023/01/16 09:27:05;;;;;;;1.00;0.90;;;;;;;3.65;100.00;95839.84;4152744;28;20213;-46
2023/01/16 09:29:07;;;;;;;0.70;0.70;;;;;;;3.61;100.00;95814.44;4140798;28;20228;-46
2023/01/16 09:31:09;;;;;;;1.17;1.08;;;;;;;3.62;100.00;95819.59;4139650;28;20201;-46
2023/01/16 09:33:11;;;;;;;2.53;1.23;;;;;;;3.65;100.00;95820.91;4140891;28;20224;-46
2023/01/16 09:35:13;;;;;;;0.80;0.80;;;;;;;3.69;100.00;95820.13;4152267;28;20201;-46
2023/01/16 09:37:16;;;;;;;0.80;0.80;;;;;;;3.67;100.00;95819.56;4139658;28;20209;-46
2023/01/16 09:39:17;;;;;;;1.00;1.00;;;;;;;3.65;100.00;95799.28;4129141;28;20207;-46
2023/01/16 09:43:41;;;;;;;1.60;1.08;;;;;;;3.80;100.00;95808.19;4136549;28;20476;-46
2023/01/16 09:45:43;;;;;;;0.73;0.73;;;;;;;3.85;100.00;95810.88;4135949;28;20240;-46
2023/01/16 09:47:49;;;;;;;1.60;0.98;;;;;;;3.84;100.00;95813.84;4137183;28;20265;-46
2023/01/16 09:49:56;;;;;;;1.55;1.35;;;;;;;3.86;100.00;95812.50;4119015;28;20599;-45
2023/01/16 09:59:38;;;;;;;0.82;0.82;;;;;;;3.98;100.00;95796.78;4138641;28;20289;-47
2023/01/16 10:01:43;;;;;;;0.90;0.90;;;;;;;3.98;100.00;95802.19;4135195;28;20222;-46
2023/01/16 10:03:46;;;;;;;2.58;1.00;;;;;;;3.98;100.00;95794.06;4137674;28;20256;-46
2023/01/16 10:06:27;;;;;;;0.90;0.90;;;;;;;3.96;100.00;95788.16;4136000;28;20213;-45
2023/01/16 10:08:58;;;;;;;0.90;0.90;;;;;;;3.99;100.00;95784.88;4130271;28;20206;-46
2023/01/16 10:11:16;;;;;;;0.70;0.70;;;;;;;4.07;100.00;95781.59;4124427;28;20308;-46
2023/01/16 10:13:25;;;;;;;0.90;0.90;;;;;;;4.04;100.00;95779.47;4139600;28;20503;-46
2023/01/16 10:15:54;;;;;;;1.00;1.00;;;;;;;4.09;100.00;95762.38;4137592;28;20233;-45
2023/01/16 10:17:58;;;;;;;1.63;1.02;;;;;;;4.17;100.00;95754.50;4154374;28;20246;-45
2023/01/16 10:20:22;;;;;;;0.80;0.80;;;;;;;4.17;100.00;95751.81;4142212;28;20228;-45
2023/01/16 10:22:31;;;;;;;1.00;0.95;;;;;;;4.24;100.00;95743.38;4138275;28;20233;-45